Granville, NY (12832)

5:40 PM EDT on March 27, 2015 (GMT -0400)
Granville | | Change Station
CLOSE
Current Station
Personal Weather Station
Location: Granville, NY
Elevation: 417 ft
Nearby Weather Stations

Elev 417 ft 43.40 °N, 73.27 °W | Updated 9 minutes ago

Overcast
Overcast
37.9 °F
Feels Like 35 °F
N
4.0
Wind Variable Wind from North
Gusts 7.0 mph

Today
High -- | Low -- °F
--% Chance of Precip.
Yesterday
High -- | Low -- °F
Precip. -- in
6:44 AM 7:13 PM
First Quarter, 56% visible
Pressure 29.74 in
Visibility 10.0 miles
Clouds Overcast 6000 ft
Windchill 35 °F
Dew Point 35 °F
Humidity 88%
Rainfall 0.04 in
Snow Depth Not available.
UV 1 out of 12
Pollen 1.50 out of 12
Air Quality Not available.
Flu Activity Not available.
METAR KGFL 272053Z AUTO 00000KT 10SM OVC060 06/M02 A2972 RMK AO2 SLP071 60000 T00611017 53000

More Conditions Fewer Conditions

Pressure 29.74 in
Visibility 10.0 miles
Clouds Overcast 6000 ft
Windchill 35 °F
Dew Point 35 °F
Humidity 88%
Rainfall 0.04 in
Snow Depth Not available.
UV 1 out of 12
Pollen 1.50 out of 12
Air Quality Not available.
Flu Activity Not available.
METAR KGFL 272053Z AUTO 00000KT 10SM OVC060 06/M02 A2972 RMK AO2 SLP071 60000 T00611017 53000

More Conditions Fewer Conditions

10-Day Weather Forecast

Almanac

Astronomy

Mar. 27, 2015 Rise Set
Actual Time
Civil Twilight
Nautical Twilight
Astronomical Twilight
Moon
Length of Visible Light
Length of Day
Tomorrow will be .
, % of the Moon is Illuminated

Today's Extremes

State Highs State Lows

Community

WunderPhotos

Upload Photos

1,808,834 photos uploaded!

WunderBlogs® & News

Nearby

Air Quality

  Air Quality AQ Index Pollutant
Not available.

Snow Depth

Station Depth Elevation

Earthquake Activity

City Distance Mag. Time & Date
Minimum magnitude displayed is 2.5.

Coastal Water Temperatures

Place Temperature

Stations

Nearby Weather Stations

Station Location Temp. Windchill Dew Point Humidity Wind Precip. Elev Updated Type